createdAt,value
2018-07-04T00:00:05.385Z,15.70
2018-07-04T00:01:04.941Z,15.60
2018-07-04T00:02:05.128Z,15.60
2018-07-04T00:03:05.514Z,15.60
2018-07-04T00:04:05.212Z,15.60
2018-07-04T00:05:05.286Z,15.50
2018-07-04T00:06:05.307Z,15.50
2018-07-04T00:07:05.417Z,15.50
2018-07-04T00:08:04.978Z,15.50
2018-07-04T00:09:05.454Z,15.50
2018-07-04T00:10:04.555Z,15.50
2018-07-04T00:11:05.124Z,15.40
2018-07-04T00:12:04.625Z,15.40
2018-07-04T00:13:05.325Z,15.40
2018-07-04T00:14:05.366Z,15.40
2018-07-04T00:15:05.333Z,15.40
2018-07-04T00:16:05.207Z,15.40
2018-07-04T00:17:04.956Z,15.30
2018-07-04T00:18:05.409Z,15.30
2018-07-04T00:19:04.870Z,15.30
2018-07-04T00:20:04.848Z,15.30
2018-07-04T00:21:04.782Z,15.20
2018-07-04T00:22:05.066Z,15.20
2018-07-04T00:23:04.662Z,15.20
2018-07-04T00:24:05.019Z,15.20
2018-07-04T00:25:05.463Z,15.20
2018-07-04T00:26:05.597Z,15.20
2018-07-04T00:27:04.931Z,15.10
2018-07-04T00:28:05.281Z,15.10
2018-07-04T00:29:04.883Z,15.10
2018-07-04T00:30:10.390Z,15.10
2018-07-04T00:31:05.082Z,15.10
2018-07-04T00:32:05.273Z,15.10
2018-07-04T00:33:04.932Z,15.10
2018-07-04T00:34:04.899Z,15.10
2018-07-04T00:35:05.533Z,15.00
2018-07-04T00:36:05.273Z,15.00
2018-07-04T00:37:05.197Z,15.00
2018-07-04T00:38:05.186Z,15.00
2018-07-04T00:39:05.370Z,15.00
2018-07-04T00:40:04.897Z,15.00
2018-07-04T00:41:05.461Z,15.00
2018-07-04T00:42:04.972Z,15.00
2018-07-04T00:43:09.856Z,15.00
2018-07-04T00:44:05.507Z,15.00
2018-07-04T00:45:05.045Z,14.90
2018-07-04T00:46:05.443Z,14.90
2018-07-04T00:47:05.118Z,14.90
2018-07-04T00:48:04.949Z,14.80
2018-07-04T00:49:04.617Z,14.80
2018-07-04T00:50:05.495Z,14.80
2018-07-04T00:51:05.144Z,14.80
2018-07-04T00:52:04.833Z,14.70
2018-07-04T00:53:05.208Z,14.70
2018-07-04T00:54:05.520Z,14.70
2018-07-04T00:55:05.271Z,14.70
2018-07-04T00:56:05.333Z,14.70
2018-07-04T00:57:04.759Z,14.60
2018-07-04T00:58:05.092Z,14.60
2018-07-04T00:59:05.388Z,14.60
2018-07-04T01:00:05.104Z,14.60
2018-07-04T01:01:04.544Z,14.60
2018-07-04T01:02:05.424Z,14.60
2018-07-04T01:03:05.125Z,14.50
2018-07-04T01:04:05.504Z,14.50
2018-07-04T01:05:05.004Z,14.50
2018-07-04T01:06:04.948Z,14.50
2018-07-04T01:07:05.364Z,14.50
2018-07-04T01:08:04.859Z,14.50
2018-07-04T01:09:05.325Z,14.50
2018-07-04T01:10:05.208Z,14.50
2018-07-04T01:11:05.353Z,14.40
2018-07-04T01:12:05.254Z,14.40
2018-07-04T01:13:05.388Z,14.40
2018-07-04T01:14:05.131Z,14.40
2018-07-04T01:15:04.517Z,14.40
2018-07-04T01:16:05.897Z,14.40
2018-07-04T01:17:04.773Z,14.40
2018-07-04T01:18:05.623Z,14.30
2018-07-04T01:19:05.452Z,14.30
2018-07-04T01:20:05.487Z,14.30
2018-07-04T01:21:05.425Z,14.30
2018-07-04T01:22:05.192Z,14.30
2018-07-04T01:23:05.262Z,14.30
2018-07-04T01:24:04.694Z,14.30
2018-07-04T01:25:05.265Z,14.20
2018-07-04T01:26:04.678Z,14.20
2018-07-04T01:27:05.115Z,14.20
2018-07-04T01:28:04.985Z,14.20
2018-07-04T01:29:04.652Z,14.20
2018-07-04T01:30:04.935Z,14.10
2018-07-04T01:31:05.281Z,14.10
2018-07-04T01:32:05.280Z,14.10
2018-07-04T01:33:05.111Z,14.10
2018-07-04T01:34:05.373Z,14.10
2018-07-04T01:35:05.046Z,14.10
2018-07-04T01:36:05.214Z,14.10
2018-07-04T01:37:05.005Z,14.00
2018-07-04T01:38:05.348Z,14.00
2018-07-04T01:39:05.191Z,14.00
2018-07-04T01:40:04.860Z,14.00
2018-07-04T01:41:04.934Z,13.90
2018-07-04T01:42:05.123Z,13.90
2018-07-04T01:43:04.644Z,13.90
2018-07-04T01:44:05.132Z,13.90
2018-07-04T01:45:05.523Z,13.90
2018-07-04T01:46:05.104Z,13.80
2018-07-04T01:47:04.799Z,13.80
2018-07-04T01:48:04.850Z,13.80
2018-07-04T01:49:04.795Z,13.80
2018-07-04T01:50:05.621Z,13.70
2018-07-04T01:51:04.686Z,13.70
2018-07-04T01:52:04.632Z,13.70
2018-07-04T01:53:05.017Z,13.70
2018-07-04T01:54:05.328Z,13.70
2018-07-04T01:55:05.283Z,13.70
2018-07-04T01:56:04.820Z,13.60
2018-07-04T01:57:04.725Z,13.60
2018-07-04T01:58:04.893Z,13.60
2018-07-04T01:59:04.772Z,13.60
2018-07-04T02:00:05.457Z,13.60
2018-07-04T02:01:05.512Z,13.60
2018-07-04T02:02:05.474Z,13.60
2018-07-04T02:03:05.276Z,13.60
2018-07-04T02:04:05.282Z,13.60
2018-07-04T02:05:05.120Z,13.50
2018-07-04T02:06:10.504Z,13.50
2018-07-04T02:07:06.435Z,13.50
2018-07-04T02:08:04.892Z,13.50
2018-07-04T02:09:06.115Z,13.50
2018-07-04T02:10:05.317Z,13.50
2018-07-04T02:11:04.692Z,13.50
2018-07-04T02:12:05.121Z,13.50
2018-07-04T02:13:04.831Z,13.40
2018-07-04T02:14:04.974Z,13.40
2018-07-04T02:15:05.178Z,13.40
2018-07-04T02:16:05.395Z,13.40
2018-07-04T02:17:05.030Z,13.30
2018-07-04T02:18:05.042Z,13.30
2018-07-04T02:19:05.622Z,13.30
2018-07-04T02:20:04.548Z,13.30
2018-07-04T02:21:05.204Z,13.30
2018-07-04T02:22:05.206Z,13.20
2018-07-04T02:23:05.363Z,13.20
2018-07-04T02:24:05.143Z,13.20
2018-07-04T02:25:04.687Z,13.20
2018-07-04T02:26:05.133Z,13.20
2018-07-04T02:27:05.134Z,13.20
2018-07-04T02:28:05.043Z,13.20
2018-07-04T02:29:05.358Z,13.10
2018-07-04T02:30:05.023Z,13.10
2018-07-04T02:31:05.015Z,13.10
2018-07-04T02:32:04.976Z,13.10
2018-07-04T02:33:04.523Z,13.10
2018-07-04T02:34:04.818Z,13.00
2018-07-04T02:35:05.153Z,13.00
2018-07-04T02:36:04.796Z,13.00
2018-07-04T02:37:05.386Z,13.00
2018-07-04T02:38:04.788Z,13.00
2018-07-04T02:39:04.646Z,13.00
2018-07-04T02:40:04.533Z,13.00
2018-07-04T02:41:04.900Z,13.00
2018-07-04T02:42:04.641Z,13.00
2018-07-04T02:43:04.655Z,13.00
2018-07-04T02:44:05.761Z,13.00
2018-07-04T02:45:05.096Z,13.00
2018-07-04T02:46:05.137Z,13.00
2018-07-04T02:47:05.383Z,13.00
2018-07-04T02:48:05.403Z,13.00
2018-07-04T02:49:05.303Z,13.00
2018-07-04T02:50:04.974Z,13.00
2018-07-04T02:51:05.001Z,13.00
2018-07-04T02:52:05.148Z,13.00
2018-07-04T02:53:05.268Z,13.00
2018-07-04T02:54:05.249Z,13.00
2018-07-04T02:55:05.311Z,13.00
2018-07-04T02:56:04.929Z,13.00
2018-07-04T02:57:04.764Z,13.00
2018-07-04T02:58:05.155Z,13.00
2018-07-04T02:59:05.533Z,12.90
2018-07-04T03:00:05.590Z,12.90
2018-07-04T03:01:05.570Z,12.90
2018-07-04T03:02:05.243Z,12.90
2018-07-04T03:03:05.431Z,12.90
2018-07-04T03:04:05.527Z,12.90
2018-07-04T03:05:06.608Z,12.80
2018-07-04T03:06:05.425Z,12.80
2018-07-04T03:07:05.444Z,12.80
2018-07-04T03:08:05.138Z,12.80
2018-07-04T03:09:05.178Z,12.80
2018-07-04T03:10:04.811Z,12.80
2018-07-04T03:11:05.137Z,12.80
2018-07-04T03:12:05.396Z,12.80
2018-07-04T03:13:05.451Z,12.80
2018-07-04T03:14:05.899Z,12.80
2018-07-04T03:15:05.322Z,12.80
2018-07-04T03:16:04.675Z,12.80
2018-07-04T03:17:04.961Z,12.80
2018-07-04T03:18:04.689Z,12.80
2018-07-04T03:19:05.231Z,12.80
2018-07-04T03:20:05.006Z,12.80
2018-07-04T03:21:05.037Z,12.80
2018-07-04T03:22:05.571Z,12.80
2018-07-04T03:23:04.611Z,12.80
2018-07-04T03:24:05.176Z,12.80
2018-07-04T03:25:04.835Z,12.80
2018-07-04T03:26:04.750Z,12.80
2018-07-04T03:27:05.074Z,12.80
2018-07-04T03:28:05.472Z,12.80
2018-07-04T03:29:05.442Z,12.80
2018-07-04T03:30:04.678Z,12.80
2018-07-04T03:31:05.004Z,12.80
2018-07-04T03:32:05.325Z,12.80
2018-07-04T03:33:05.343Z,12.80
2018-07-04T03:34:04.829Z,12.80
2018-07-04T03:35:05.175Z,12.80
2018-07-04T03:36:04.510Z,12.80
2018-07-04T03:37:05.516Z,12.80
2018-07-04T03:38:05.279Z,12.80
2018-07-04T03:39:04.858Z,12.80
2018-07-04T03:40:04.669Z,12.80
2018-07-04T03:41:05.035Z,12.90
2018-07-04T03:42:04.855Z,12.90
2018-07-04T03:43:05.291Z,12.90
2018-07-04T03:44:05.044Z,13.00
2018-07-04T03:45:05.483Z,13.00
2018-07-04T03:46:04.947Z,13.10
2018-07-04T03:47:09.711Z,13.10
2018-07-04T03:48:04.623Z,13.20
2018-07-04T03:49:04.798Z,13.20
2018-07-04T03:50:04.667Z,13.30
2018-07-04T03:51:05.224Z,13.30
2018-07-04T03:52:05.093Z,13.40
2018-07-04T03:53:05.155Z,13.40
2018-07-04T03:54:05.153Z,13.50
2018-07-04T03:55:05.389Z,13.50
2018-07-04T03:56:05.592Z,13.60
2018-07-04T03:57:04.753Z,13.70
2018-07-04T03:58:04.876Z,13.80
2018-07-04T03:59:05.024Z,13.90
2018-07-04T04:00:05.536Z,14.00
2018-07-04T04:01:04.840Z,14.10
2018-07-04T04:02:04.691Z,14.30
2018-07-04T04:03:04.791Z,14.40
2018-07-04T04:04:05.178Z,14.60
2018-07-04T04:05:04.630Z,14.80
2018-07-04T04:06:05.166Z,14.90
2018-07-04T04:07:04.731Z,15.10
2018-07-04T04:08:05.223Z,15.30
2018-07-04T04:09:04.600Z,15.50
2018-07-04T04:10:05.140Z,15.60
2018-07-04T04:11:04.942Z,15.80
2018-07-04T04:12:05.030Z,15.90
2018-07-04T04:13:05.099Z,16.10
2018-07-04T04:14:05.414Z,16.20
2018-07-04T04:15:04.800Z,16.40
2018-07-04T04:16:04.853Z,16.50
2018-07-04T04:17:05.041Z,16.70
2018-07-04T04:18:05.335Z,16.80
2018-07-04T04:19:05.246Z,17.00
2018-07-04T04:20:05.043Z,17.10
2018-07-04T04:21:05.056Z,17.30
2018-07-04T04:22:05.598Z,17.40
2018-07-04T04:23:05.344Z,17.60
2018-07-04T04:24:05.554Z,17.80
2018-07-04T04:25:05.090Z,17.90
2018-07-04T04:26:05.417Z,18.10
2018-07-04T04:27:04.687Z,18.20
2018-07-04T04:28:04.744Z,18.40
2018-07-04T04:29:04.983Z,18.50
2018-07-04T04:30:04.839Z,18.70
2018-07-04T04:31:05.413Z,18.80
2018-07-04T04:32:05.419Z,18.90
2018-07-04T04:33:04.895Z,19.00
2018-07-04T04:34:05.076Z,19.20
2018-07-04T04:35:05.631Z,19.30
2018-07-04T04:36:05.493Z,19.40
2018-07-04T04:37:05.497Z,19.60
2018-07-04T04:38:05.056Z,19.70
2018-07-04T04:39:05.276Z,19.80
2018-07-04T04:40:05.466Z,20.00
2018-07-04T04:41:04.627Z,20.10
2018-07-04T04:42:04.638Z,20.20
2018-07-04T04:43:05.477Z,20.40
2018-07-04T04:44:04.837Z,20.50
2018-07-04T04:45:04.829Z,20.70
2018-07-04T04:46:05.022Z,20.80
2018-07-04T04:47:04.779Z,20.90
2018-07-04T04:48:05.547Z,21.10
2018-07-04T04:49:05.335Z,21.20
2018-07-04T04:50:05.752Z,21.30
2018-07-04T04:51:05.185Z,21.40
2018-07-04T04:52:04.994Z,21.50
2018-07-04T04:53:10.087Z,21.60
2018-07-04T04:54:04.897Z,21.70
2018-07-04T04:55:05.280Z,21.80
2018-07-04T04:56:05.006Z,21.90
2018-07-04T04:57:05.266Z,22.00
2018-07-04T04:58:05.402Z,22.10
2018-07-04T04:59:04.679Z,22.20
2018-07-04T05:00:04.772Z,22.30
2018-07-04T05:01:05.243Z,22.40
2018-07-04T05:02:05.073Z,22.40
2018-07-04T05:03:04.870Z,22.50
2018-07-04T05:04:05.271Z,22.60
2018-07-04T05:05:05.082Z,22.70
2018-07-04T05:06:05.089Z,22.70
2018-07-04T05:07:05.409Z,22.80
2018-07-04T05:08:04.905Z,22.90
2018-07-04T05:09:05.214Z,23.00
2018-07-04T05:10:04.863Z,23.10
2018-07-04T05:11:05.329Z,23.20
2018-07-04T05:12:05.304Z,23.20
2018-07-04T05:13:05.457Z,23.30
2018-07-04T05:14:04.714Z,23.30
2018-07-04T05:15:05.375Z,23.40
2018-07-04T05:16:05.282Z,23.40
2018-07-04T05:17:05.537Z,23.50
2018-07-04T05:18:05.443Z,23.60
2018-07-04T05:19:05.609Z,23.60
2018-07-04T05:20:05.526Z,23.70
2018-07-04T05:21:05.494Z,23.80
2018-07-04T05:22:05.488Z,23.80
2018-07-04T05:23:05.378Z,23.90
2018-07-04T05:24:06.161Z,23.90
2018-07-04T05:25:05.226Z,24.00
2018-07-04T05:26:05.340Z,24.10
2018-07-04T05:27:04.645Z,24.20
2018-07-04T05:28:05.592Z,24.20
2018-07-04T05:29:04.694Z,24.30
2018-07-04T05:30:05.220Z,24.30
2018-07-04T05:31:04.628Z,24.40
2018-07-04T05:32:05.290Z,24.40
2018-07-04T05:33:05.232Z,24.40
2018-07-04T05:34:05.154Z,24.40
2018-07-04T05:35:05.569Z,24.40
2018-07-04T05:36:04.946Z,24.40
2018-07-04T05:37:05.239Z,24.40
2018-07-04T05:38:05.397Z,24.50
2018-07-04T05:39:04.807Z,24.50
2018-07-04T05:40:05.091Z,24.60
2018-07-04T05:41:05.170Z,24.60
2018-07-04T05:42:05.296Z,24.60
2018-07-04T05:43:04.889Z,24.70
2018-07-04T05:44:10.056Z,24.70
2018-07-04T05:45:04.957Z,24.80
2018-07-04T05:46:04.973Z,24.80
2018-07-04T05:47:05.347Z,24.90
2018-07-04T05:48:05.325Z,24.90
2018-07-04T05:49:05.025Z,25.00
2018-07-04T05:50:04.995Z,25.00
2018-07-04T05:51:05.369Z,25.10
2018-07-04T05:52:04.839Z,25.10
2018-07-04T05:53:04.822Z,25.20
2018-07-04T05:54:05.485Z,25.30
2018-07-04T05:55:05.203Z,25.30
2018-07-04T05:56:05.314Z,25.40
2018-07-04T05:57:05.010Z,25.40
2018-07-04T05:58:05.510Z,25.50
2018-07-04T05:59:04.727Z,25.50
2018-07-04T06:00:04.601Z,25.60
2018-07-04T06:01:04.922Z,25.60
2018-07-04T06:02:04.956Z,25.60
2018-07-04T06:03:05.446Z,25.70
2018-07-04T06:04:04.784Z,25.70
2018-07-04T06:05:05.069Z,25.70
2018-07-04T06:06:05.355Z,25.80
2018-07-04T06:07:05.051Z,25.80
2018-07-04T06:08:04.965Z,25.90
2018-07-04T06:09:04.947Z,25.90
2018-07-04T06:10:04.684Z,26.00
2018-07-04T06:11:04.587Z,26.00
2018-07-04T06:12:04.800Z,26.10
2018-07-04T06:13:05.397Z,26.10
2018-07-04T06:14:05.532Z,26.20
2018-07-04T06:15:04.852Z,26.20
2018-07-04T06:16:05.493Z,26.30
2018-07-04T06:17:05.156Z,26.30
2018-07-04T06:18:04.904Z,26.40
2018-07-04T06:19:05.316Z,26.40
2018-07-04T06:20:05.079Z,26.50
2018-07-04T06:21:05.723Z,26.60
2018-07-04T06:22:04.645Z,26.60
2018-07-04T06:23:04.814Z,26.70
2018-07-04T06:24:04.798Z,26.70
2018-07-04T06:25:05.150Z,26.80
2018-07-04T06:26:04.994Z,26.90
2018-07-04T06:27:05.255Z,27.00
2018-07-04T06:28:04.720Z,27.00
2018-07-04T06:29:05.413Z,27.10
2018-07-04T06:30:05.174Z,27.20
2018-07-04T06:31:05.164Z,27.20
2018-07-04T06:32:05.299Z,27.30
2018-07-04T06:33:05.059Z,27.30
2018-07-04T06:34:04.699Z,27.40
2018-07-04T06:35:05.533Z,27.50
2018-07-04T06:36:05.130Z,27.50
2018-07-04T06:37:04.802Z,27.60
2018-07-04T06:38:04.705Z,27.70
2018-07-04T06:39:05.230Z,27.70
2018-07-04T06:40:04.575Z,27.80
2018-07-04T06:41:05.340Z,27.80
2018-07-04T06:42:05.006Z,27.90
2018-07-04T06:43:05.495Z,27.90
2018-07-04T06:44:05.210Z,28.00
2018-07-04T06:45:04.809Z,28.10
2018-07-04T06:46:05.403Z,28.20
2018-07-04T06:47:04.935Z,28.20
2018-07-04T06:48:05.169Z,28.30
2018-07-04T06:49:05.354Z,28.40
2018-07-04T06:50:05.047Z,28.40
2018-07-04T06:51:04.966Z,28.50
2018-07-04T06:52:05.083Z,28.50
2018-07-04T06:53:05.129Z,28.60
2018-07-04T06:54:04.867Z,28.70
2018-07-04T06:55:04.777Z,28.70
2018-07-04T06:56:05.389Z,28.80
2018-07-04T06:57:05.077Z,28.90
2018-07-04T06:58:04.736Z,28.90
2018-07-04T06:59:04.594Z,29.00
2018-07-04T07:00:05.259Z,29.00
2018-07-04T07:01:04.819Z,29.00
2018-07-04T07:02:05.337Z,29.00
2018-07-04T07:03:04.655Z,29.00
2018-07-04T07:04:05.462Z,28.90
2018-07-04T07:05:05.182Z,28.80
2018-07-04T07:06:05.170Z,28.80
2018-07-04T07:07:05.324Z,28.60
2018-07-04T07:08:04.697Z,28.50
2018-07-04T07:09:04.859Z,28.40
2018-07-04T07:10:05.115Z,28.40
2018-07-04T07:11:04.881Z,28.30
2018-07-04T07:12:04.930Z,28.30
2018-07-04T07:13:05.420Z,28.30
2018-07-04T07:14:05.048Z,28.20
2018-07-04T07:15:04.791Z,28.20
2018-07-04T07:16:05.483Z,28.30
2018-07-04T07:17:04.875Z,28.30
2018-07-04T07:18:04.694Z,28.30
2018-07-04T07:19:04.782Z,28.40
2018-07-04T07:20:05.327Z,28.40
2018-07-04T07:21:05.346Z,28.40
2018-07-04T07:22:05.131Z,28.50
2018-07-04T07:23:05.485Z,28.50
2018-07-04T07:24:05.972Z,28.60
2018-07-04T07:25:04.877Z,28.70
2018-07-04T07:26:05.013Z,28.70
2018-07-04T07:27:04.582Z,28.80
2018-07-04T07:28:04.913Z,28.80
2018-07-04T07:29:04.772Z,28.80
2018-07-04T07:30:04.899Z,28.80
2018-07-04T07:31:05.454Z,28.80
2018-07-04T07:32:04.930Z,28.80
2018-07-04T07:33:04.534Z,28.80
2018-07-04T07:34:05.144Z,28.80
2018-07-04T07:35:04.733Z,28.90
2018-07-04T07:36:05.351Z,28.90
2018-07-04T07:37:04.913Z,28.80
2018-07-04T07:38:04.621Z,28.80
2018-07-04T07:39:09.651Z,28.90
2018-07-04T07:40:04.816Z,28.90
2018-07-04T07:41:05.418Z,28.90
2018-07-04T07:42:05.015Z,28.90
2018-07-04T07:43:05.077Z,28.90
2018-07-04T07:44:05.269Z,28.90
2018-07-04T07:45:05.397Z,28.90
2018-07-04T07:46:05.320Z,28.90
2018-07-04T07:47:04.944Z,28.90
2018-07-04T07:48:05.549Z,28.90
2018-07-04T07:49:05.511Z,28.90
2018-07-04T07:50:09.821Z,28.80
2018-07-04T07:51:04.536Z,28.80
2018-07-04T07:52:05.060Z,28.80
2018-07-04T07:53:05.480Z,28.80
2018-07-04T07:54:04.558Z,28.80
2018-07-04T07:55:05.307Z,28.80
2018-07-04T07:56:04.727Z,28.80
2018-07-04T07:57:04.990Z,28.80
2018-07-04T07:58:05.173Z,28.80
2018-07-04T07:59:05.424Z,28.80
2018-07-04T08:00:05.112Z,28.80
2018-07-04T08:01:05.292Z,28.80
2018-07-04T08:02:05.297Z,28.80
2018-07-04T08:03:05.270Z,28.80
2018-07-04T08:04:05.156Z,28.80
2018-07-04T08:05:05.443Z,28.80
2018-07-04T08:06:05.230Z,28.70
2018-07-04T08:07:04.666Z,28.70
2018-07-04T08:08:05.401Z,28.70
2018-07-04T08:09:05.283Z,28.70
2018-07-04T08:10:05.459Z,28.60
2018-07-04T08:11:05.386Z,28.60
2018-07-04T08:12:05.066Z,28.60
2018-07-04T08:13:04.924Z,28.60
2018-07-04T08:14:05.299Z,28.50
2018-07-04T08:15:04.958Z,28.50
2018-07-04T08:16:05.663Z,28.50
2018-07-04T08:17:04.771Z,28.50
2018-07-04T08:18:05.393Z,28.50
2018-07-04T08:19:05.526Z,28.50
2018-07-04T08:20:05.440Z,28.50
2018-07-04T08:21:04.743Z,28.40
2018-07-04T08:22:05.356Z,28.40
2018-07-04T08:23:04.961Z,28.40
2018-07-04T08:24:05.506Z,28.40
2018-07-04T08:25:04.957Z,28.40
2018-07-04T08:26:04.703Z,28.40
2018-07-04T08:27:05.151Z,28.40
2018-07-04T08:28:04.640Z,28.30
2018-07-04T08:29:05.119Z,28.30
2018-07-04T08:30:04.896Z,28.30
2018-07-04T08:31:05.265Z,28.30
2018-07-04T08:32:05.478Z,28.30
2018-07-04T08:33:05.072Z,28.30
2018-07-04T08:34:05.140Z,28.40
2018-07-04T08:35:05.415Z,28.40
2018-07-04T08:36:04.684Z,28.40
2018-07-04T08:37:05.105Z,28.40
2018-07-04T08:38:04.937Z,28.40
2018-07-04T08:39:05.217Z,28.50
2018-07-04T08:40:04.645Z,28.50
2018-07-04T08:41:05.467Z,28.60
2018-07-04T08:42:04.552Z,28.60
2018-07-04T08:43:04.803Z,28.70
2018-07-04T08:44:04.707Z,28.70
2018-07-04T08:45:05.208Z,28.70
2018-07-04T08:46:04.965Z,28.80
2018-07-04T08:47:04.673Z,28.80
2018-07-04T08:48:10.168Z,28.90
2018-07-04T08:49:05.068Z,28.90
2018-07-04T08:50:05.156Z,28.90
2018-07-04T08:51:05.477Z,29.00
2018-07-04T08:52:05.342Z,29.00
2018-07-04T08:53:05.059Z,29.00
2018-07-04T08:54:05.513Z,29.10
2018-07-04T08:55:04.785Z,29.10
2018-07-04T08:56:04.864Z,29.20
2018-07-04T08:57:05.056Z,29.20
2018-07-04T08:58:05.514Z,29.20
2018-07-04T08:59:04.610Z,29.30
2018-07-04T09:00:04.814Z,29.30
2018-07-04T09:01:05.232Z,29.40
2018-07-04T09:02:04.675Z,29.40
2018-07-04T09:03:05.044Z,29.40
2018-07-04T09:04:05.165Z,29.50
2018-07-04T09:05:05.069Z,29.50
2018-07-04T09:06:04.763Z,29.60
2018-07-04T09:07:05.181Z,29.70
2018-07-04T09:08:05.263Z,29.70
2018-07-04T09:09:05.222Z,29.80
2018-07-04T09:10:05.022Z,29.80
2018-07-04T09:11:05.498Z,29.90
2018-07-04T09:12:04.688Z,29.90
2018-07-04T09:13:04.841Z,30.00
2018-07-04T09:14:05.267Z,30.00
2018-07-04T09:15:05.474Z,30.00
2018-07-04T09:16:04.845Z,30.10
2018-07-04T09:17:05.243Z,30.10
2018-07-04T09:18:05.160Z,30.10
2018-07-04T09:19:05.430Z,30.10
2018-07-04T09:20:05.010Z,30.10
2018-07-04T09:21:05.650Z,30.20
2018-07-04T09:22:05.373Z,30.20
2018-07-04T09:23:05.512Z,30.30
2018-07-04T09:24:04.834Z,30.30
2018-07-04T09:25:04.784Z,30.30
2018-07-04T09:26:05.502Z,30.40
2018-07-04T09:27:04.558Z,30.40
2018-07-04T09:28:05.524Z,30.40
2018-07-04T09:29:05.351Z,30.40
2018-07-04T09:30:05.182Z,30.40
2018-07-04T09:31:05.249Z,30.40
2018-07-04T09:32:04.750Z,30.40
2018-07-04T09:33:05.461Z,30.40
2018-07-04T09:34:04.718Z,30.40
2018-07-04T09:35:04.799Z,30.30
2018-07-04T09:36:04.990Z,30.30
2018-07-04T09:37:05.300Z,30.30
2018-07-04T09:38:05.531Z,30.30
2018-07-04T09:39:04.761Z,30.30
2018-07-04T09:40:05.454Z,30.30
2018-07-04T09:41:05.099Z,30.30
2018-07-04T09:42:05.194Z,30.30
2018-07-04T09:43:05.073Z,30.30
2018-07-04T09:44:05.189Z,30.30
2018-07-04T09:45:05.082Z,30.30
2018-07-04T09:46:05.545Z,30.40
2018-07-04T09:47:04.870Z,30.40
2018-07-04T09:48:04.733Z,30.40
2018-07-04T09:49:05.179Z,30.50
2018-07-04T09:50:05.369Z,30.50
2018-07-04T09:51:05.237Z,30.60
2018-07-04T09:52:05.261Z,30.60
2018-07-04T09:53:05.501Z,30.70
2018-07-04T09:54:04.813Z,30.70
2018-07-04T09:55:04.693Z,30.80
2018-07-04T09:56:04.686Z,30.80
2018-07-04T09:57:04.655Z,30.80
2018-07-04T09:58:04.740Z,30.90
2018-07-04T09:59:05.213Z,30.90
2018-07-04T10:00:04.758Z,31.00
2018-07-04T10:01:04.878Z,31.00
2018-07-04T10:02:05.271Z,31.10
2018-07-04T10:03:05.553Z,31.10
2018-07-04T10:04:05.445Z,31.10
2018-07-04T10:05:04.975Z,31.10
2018-07-04T10:06:04.870Z,31.10
2018-07-04T10:07:10.113Z,31.10
2018-07-04T10:08:04.970Z,31.10
2018-07-04T10:09:04.866Z,31.10
2018-07-04T10:10:04.727Z,31.10
2018-07-04T10:11:04.682Z,31.10
2018-07-04T10:12:04.572Z,31.20
2018-07-04T10:13:05.395Z,31.20
2018-07-04T10:14:04.892Z,31.20
2018-07-04T10:15:05.090Z,31.30
2018-07-04T10:16:04.605Z,31.30
2018-07-04T10:17:05.288Z,31.30
2018-07-04T10:18:04.921Z,31.30
2018-07-04T10:19:05.549Z,31.40
2018-07-04T10:20:04.917Z,31.40
2018-07-04T10:21:05.412Z,31.50
2018-07-04T10:22:05.181Z,31.50
2018-07-04T10:23:05.085Z,31.50
2018-07-04T10:24:04.638Z,31.50
2018-07-04T10:25:05.006Z,31.60
2018-07-04T10:26:05.039Z,31.60
2018-07-04T10:27:05.014Z,31.60
2018-07-04T10:28:04.975Z,31.60
2018-07-04T10:29:05.238Z,31.60
2018-07-04T10:30:05.625Z,31.60
2018-07-04T10:31:04.672Z,31.60
2018-07-04T10:32:04.747Z,31.60
2018-07-04T10:33:05.236Z,31.60
2018-07-04T10:34:04.998Z,31.60
2018-07-04T10:35:04.680Z,31.60
2018-07-04T10:36:05.045Z,31.50
2018-07-04T10:37:04.930Z,31.60
2018-07-04T10:38:05.362Z,31.60
2018-07-04T10:39:05.132Z,31.60
2018-07-04T10:40:05.508Z,31.70
2018-07-04T10:41:04.760Z,31.70
2018-07-04T10:42:05.085Z,31.70
2018-07-04T10:43:04.997Z,31.70
2018-07-04T10:44:04.559Z,31.70
2018-07-04T10:45:05.611Z,31.70
2018-07-04T10:46:04.967Z,31.80
2018-07-04T10:47:05.428Z,31.80
2018-07-04T10:48:05.057Z,31.90
2018-07-04T10:49:05.536Z,31.90
2018-07-04T10:50:05.103Z,31.90
2018-07-04T10:51:05.034Z,31.90
2018-07-04T10:52:05.113Z,31.90
2018-07-04T10:53:05.045Z,31.90
2018-07-04T10:54:05.025Z,31.90
2018-07-04T10:55:04.888Z,31.80
2018-07-04T10:56:04.737Z,31.90
2018-07-04T10:57:05.199Z,31.90
2018-07-04T10:58:05.188Z,31.90
2018-07-04T10:59:05.532Z,31.90
2018-07-04T11:00:04.676Z,32.00
2018-07-04T11:01:05.324Z,32.00
2018-07-04T11:02:04.794Z,32.00
2018-07-04T11:03:05.382Z,32.10
2018-07-04T11:04:04.993Z,32.10
2018-07-04T11:05:05.036Z,32.10
2018-07-04T11:06:05.064Z,32.10
2018-07-04T11:07:04.662Z,32.20
2018-07-04T11:08:04.667Z,32.20
2018-07-04T11:09:05.394Z,32.20
2018-07-04T11:10:05.172Z,32.20
2018-07-04T11:11:05.506Z,32.20
2018-07-04T11:12:04.933Z,32.30
2018-07-04T11:13:04.829Z,32.30
2018-07-04T11:14:04.664Z,32.30
2018-07-04T11:15:04.979Z,32.40
2018-07-04T11:16:05.534Z,32.40
2018-07-04T11:17:05.371Z,32.40
2018-07-04T11:18:05.452Z,32.40
2018-07-04T11:19:10.561Z,32.30
2018-07-04T11:20:04.714Z,32.30
2018-07-04T11:21:05.439Z,32.30
2018-07-04T11:22:04.779Z,32.30
2018-07-04T11:23:04.706Z,32.20
2018-07-04T11:24:05.134Z,32.20
2018-07-04T11:25:04.739Z,32.20
2018-07-04T11:26:05.041Z,32.10
2018-07-04T11:27:05.115Z,32.10
2018-07-04T11:28:05.106Z,32.10
2018-07-04T11:29:05.465Z,32.00
2018-07-04T11:30:05.254Z,32.00
2018-07-04T11:31:05.500Z,32.10
2018-07-04T11:32:04.800Z,32.10
2018-07-04T11:33:05.344Z,32.10
2018-07-04T11:34:05.359Z,32.10
2018-07-04T11:35:05.098Z,32.10
2018-07-04T11:36:04.928Z,32.10
2018-07-04T11:37:05.324Z,32.20
2018-07-04T11:38:04.802Z,32.20
2018-07-04T11:39:05.169Z,32.20
2018-07-04T11:40:05.021Z,32.20
2018-07-04T11:41:05.026Z,32.10
2018-07-04T11:42:04.936Z,32.10
2018-07-04T11:43:04.956Z,32.10
2018-07-04T11:44:04.733Z,32.00
2018-07-04T11:45:09.573Z,32.00
2018-07-04T11:46:04.845Z,32.00
2018-07-04T11:47:05.455Z,32.00
2018-07-04T11:48:06.689Z,32.00
2018-07-04T11:49:04.775Z,32.00
2018-07-04T11:50:04.692Z,32.00
2018-07-04T11:51:04.850Z,32.10
2018-07-04T11:52:05.576Z,32.10
2018-07-04T11:53:05.580Z,32.10
2018-07-04T11:54:05.020Z,32.10
2018-07-04T11:55:04.577Z,32.10
2018-07-04T11:56:05.059Z,32.10
2018-07-04T11:57:05.587Z,32.10
2018-07-04T11:58:05.479Z,32.10
2018-07-04T11:59:04.569Z,32.00
2018-07-04T12:00:04.703Z,32.00
2018-07-04T12:01:04.732Z,32.00
2018-07-04T12:02:05.052Z,32.00
2018-07-04T12:03:05.499Z,31.90
2018-07-04T12:04:05.300Z,31.90
2018-07-04T12:05:05.338Z,31.80
2018-07-04T12:06:04.611Z,31.80
2018-07-04T12:07:05.045Z,31.70
2018-07-04T12:08:04.710Z,31.70
2018-07-04T12:09:04.742Z,31.70
2018-07-04T12:10:04.880Z,31.70
2018-07-04T12:11:04.874Z,31.70
2018-07-04T12:12:05.205Z,31.70
2018-07-04T12:13:05.074Z,31.60
2018-07-04T12:14:05.342Z,31.60
2018-07-04T12:15:05.378Z,31.60
2018-07-04T12:16:05.168Z,31.50
2018-07-04T12:17:04.890Z,31.50
2018-07-04T12:18:05.301Z,31.50
2018-07-04T12:19:05.216Z,31.40
2018-07-04T12:20:05.440Z,31.40
2018-07-04T12:21:05.060Z,31.40
2018-07-04T12:22:05.312Z,31.40
2018-07-04T12:23:04.867Z,31.40
2018-07-04T12:24:04.949Z,31.40
2018-07-04T12:25:04.984Z,31.40
2018-07-04T12:26:04.845Z,31.40
2018-07-04T12:27:05.425Z,31.50
2018-07-04T12:28:05.249Z,31.50
2018-07-04T12:29:05.535Z,31.60
2018-07-04T12:30:05.639Z,31.60
2018-07-04T12:31:05.063Z,31.60
2018-07-04T12:32:05.519Z,31.70
2018-07-04T12:33:04.911Z,31.70
2018-07-04T12:34:04.846Z,31.80
2018-07-04T12:35:04.852Z,31.80
2018-07-04T12:36:04.841Z,31.90
2018-07-04T12:37:05.329Z,32.00
2018-07-04T12:38:04.833Z,32.00
2018-07-04T12:39:05.056Z,32.00
2018-07-04T12:40:04.812Z,32.00
2018-07-04T12:41:05.194Z,32.10
2018-07-04T12:42:04.664Z,32.10
2018-07-04T12:43:05.247Z,32.10
2018-07-04T12:44:04.702Z,32.10
2018-07-04T12:45:05.328Z,32.00
2018-07-04T12:46:05.129Z,32.00
2018-07-04T12:47:05.140Z,32.00
2018-07-04T12:48:05.064Z,32.00
2018-07-04T12:49:05.098Z,31.90
2018-07-04T12:50:05.090Z,31.90
2018-07-04T12:51:04.855Z,31.90
2018-07-04T12:52:04.800Z,31.80